sensor_id;sensor_type;location;lat;lon;timestamp;P1;durP1;ratioP1;P2;durP2;ratioP2
28003;SDS011;15330;51.234;6.754;2022-08-23T00:01:54;7.47;;;4.03;;
28003;SDS011;15330;51.234;6.754;2022-08-23T00:04:24;8.23;;;3.97;;
28003;SDS011;15330;51.234;6.754;2022-08-23T00:06:56;10.13;;;4.00;;
28003;SDS011;15330;51.234;6.754;2022-08-23T00:09:23;10.35;;;4.00;;
28003;SDS011;15330;51.234;6.754;2022-08-23T00:11:51;10.25;;;4.75;;
28003;SDS011;15330;51.234;6.754;2022-08-23T00:14:27;10.07;;;4.47;;
28003;SDS011;15330;51.234;6.754;2022-08-23T00:16:54;9.10;;;4.10;;
28003;SDS011;15330;51.234;6.754;2022-08-23T00:19:21;8.38;;;4.38;;
28003;SDS011;15330;51.234;6.754;2022-08-23T00:21:48;9.52;;;3.90;;
28003;SDS011;15330;51.234;6.754;2022-08-23T00:24:15;8.93;;;4.13;;
28003;SDS011;15330;51.234;6.754;2022-08-23T00:26:59;9.23;;;3.88;;
28003;SDS011;15330;51.234;6.754;2022-08-23T00:29:31;9.48;;;4.15;;
28003;SDS011;15330;51.234;6.754;2022-08-23T00:32:21;10.57;;;3.90;;
28003;SDS011;15330;51.234;6.754;2022-08-23T00:34:50;6.88;;;4.00;;
28003;SDS011;15330;51.234;6.754;2022-08-23T00:37:16;9.02;;;4.28;;
28003;SDS011;15330;51.234;6.754;2022-08-23T00:39:42;8.13;;;4.10;;
28003;SDS011;15330;51.234;6.754;2022-08-23T00:42:22;8.20;;;3.92;;
28003;SDS011;15330;51.234;6.754;2022-08-23T00:45:10;9.13;;;4.35;;
28003;SDS011;15330;51.234;6.754;2022-08-23T00:47:58;8.30;;;4.28;;
28003;SDS011;15330;51.234;6.754;2022-08-23T00:55:36;8.70;;;4.22;;
28003;SDS011;15330;51.234;6.754;2022-08-23T00:58:05;7.93;;;4.13;;
28003;SDS011;15330;51.234;6.754;2022-08-23T01:00:32;6.18;;;3.78;;
28003;SDS011;15330;51.234;6.754;2022-08-23T01:02:58;11.00;;;4.40;;
28003;SDS011;15330;51.234;6.754;2022-08-23T01:05:27;7.82;;;4.30;;
28003;SDS011;15330;51.234;6.754;2022-08-23T01:08:00;12.13;;;4.32;;
28003;SDS011;15330;51.234;6.754;2022-08-23T01:10:27;11.82;;;4.55;;
28003;SDS011;15330;51.234;6.754;2022-08-23T01:13:02;7.55;;;4.03;;
28003;SDS011;15330;51.234;6.754;2022-08-23T01:15:53;7.18;;;3.90;;
28003;SDS011;15330;51.234;6.754;2022-08-23T01:18:23;9.77;;;4.68;;
28003;SDS011;15330;51.234;6.754;2022-08-23T01:20:55;9.40;;;4.65;;
28003;SDS011;15330;51.234;6.754;2022-08-23T01:26:09;8.18;;;4.15;;
28003;SDS011;15330;51.234;6.754;2022-08-23T01:28:36;6.60;;;4.43;;
28003;SDS011;15330;51.234;6.754;2022-08-23T01:31:03;5.60;;;4.03;;
28003;SDS011;15330;51.234;6.754;2022-08-23T01:33:29;6.22;;;4.57;;
28003;SDS011;15330;51.234;6.754;2022-08-23T01:35:56;11.63;;;5.20;;
28003;SDS011;15330;51.234;6.754;2022-08-23T01:38:23;10.35;;;5.03;;
28003;SDS011;15330;51.234;6.754;2022-08-23T01:40:50;13.13;;;5.13;;
28003;SDS011;15330;51.234;6.754;2022-08-23T01:43:17;8.13;;;4.50;;
28003;SDS011;15330;51.234;6.754;2022-08-23T01:45:46;7.85;;;5.05;;
28003;SDS011;15330;51.234;6.754;2022-08-23T01:48:13;8.15;;;4.80;;
28003;SDS011;15330;51.234;6.754;2022-08-23T01:50:39;9.27;;;5.07;;
28003;SDS011;15330;51.234;6.754;2022-08-23T01:53:05;9.10;;;5.22;;
28003;SDS011;15330;51.234;6.754;2022-08-23T01:55:31;7.85;;;4.82;;
28003;SDS011;15330;51.234;6.754;2022-08-23T01:57:59;7.22;;;5.07;;
28003;SDS011;15330;51.234;6.754;2022-08-23T02:00:28;9.00;;;5.00;;
28003;SDS011;15330;51.234;6.754;2022-08-23T02:02:57;7.40;;;4.63;;
28003;SDS011;15330;51.234;6.754;2022-08-23T02:05:24;10.57;;;5.18;;
28003;SDS011;15330;51.234;6.754;2022-08-23T02:07:50;6.45;;;4.80;;
28003;SDS011;15330;51.234;6.754;2022-08-23T02:10:15;9.82;;;4.95;;
28003;SDS011;15330;51.234;6.754;2022-08-23T02:12:41;10.50;;;5.60;;
28003;SDS011;15330;51.234;6.754;2022-08-23T02:15:06;7.30;;;4.95;;
28003;SDS011;15330;51.234;6.754;2022-08-23T02:17:32;9.23;;;5.25;;
28003;SDS011;15330;51.234;6.754;2022-08-23T02:19:58;10.35;;;5.13;;
28003;SDS011;15330;51.234;6.754;2022-08-23T02:22:26;8.68;;;4.85;;
28003;SDS011;15330;51.234;6.754;2022-08-23T02:24:51;14.73;;;5.50;;
28003;SDS011;15330;51.234;6.754;2022-08-23T02:27:16;7.47;;;5.07;;
28003;SDS011;15330;51.234;6.754;2022-08-23T02:29:42;8.52;;;4.90;;
28003;SDS011;15330;51.234;6.754;2022-08-23T02:32:11;6.32;;;5.13;;
28003;SDS011;15330;51.234;6.754;2022-08-23T02:34:38;10.05;;;5.60;;
28003;SDS011;15330;51.234;6.754;2022-08-23T02:37:05;7.60;;;5.07;;
28003;SDS011;15330;51.234;6.754;2022-08-23T02:39:33;7.70;;;4.65;;
28003;SDS011;15330;51.234;6.754;2022-08-23T02:41:59;8.68;;;4.63;;
28003;SDS011;15330;51.234;6.754;2022-08-23T02:44:25;7.50;;;4.82;;
28003;SDS011;15330;51.234;6.754;2022-08-23T02:46:51;5.72;;;4.45;;
28003;SDS011;15330;51.234;6.754;2022-08-23T02:49:16;6.82;;;4.70;;
28003;SDS011;15330;51.234;6.754;2022-08-23T02:51:42;9.32;;;4.68;;
28003;SDS011;15330;51.234;6.754;2022-08-23T02:54:07;9.73;;;4.78;;
28003;SDS011;15330;51.234;6.754;2022-08-23T02:56:33;7.35;;;4.65;;
28003;SDS011;15330;51.234;6.754;2022-08-23T02:59:00;7.50;;;4.28;;
28003;SDS011;15330;51.234;6.754;2022-08-23T03:01:29;7.55;;;4.50;;
28003;SDS011;15330;51.234;6.754;2022-08-23T03:03:57;9.30;;;4.57;;
28003;SDS011;15330;51.234;6.754;2022-08-23T03:06:24;7.28;;;4.28;;
28003;SDS011;15330;51.234;6.754;2022-08-23T03:08:50;9.50;;;4.50;;
28003;SDS011;15330;51.234;6.754;2022-08-23T03:11:17;8.20;;;4.50;;
28003;SDS011;15330;51.234;6.754;2022-08-23T03:13:45;8.18;;;4.65;;
28003;SDS011;15330;51.234;6.754;2022-08-23T03:16:11;6.78;;;4.53;;
28003;SDS011;15330;51.234;6.754;2022-08-23T03:18:38;7.40;;;4.85;;
28003;SDS011;15330;51.234;6.754;2022-08-23T03:21:04;7.32;;;4.90;;
28003;SDS011;15330;51.234;6.754;2022-08-23T03:23:31;5.75;;;4.75;;
28003;SDS011;15330;51.234;6.754;2022-08-23T03:25:57;6.20;;;4.65;;
28003;SDS011;15330;51.234;6.754;2022-08-23T03:28:24;9.32;;;4.97;;
28003;SDS011;15330;51.234;6.754;2022-08-23T03:30:50;6.82;;;4.60;;
28003;SDS011;15330;51.234;6.754;2022-08-23T03:33:16;8.27;;;5.07;;
28003;SDS011;15330;51.234;6.754;2022-08-23T03:35:42;11.20;;;5.60;;
28003;SDS011;15330;51.234;6.754;2022-08-23T03:38:08;9.20;;;5.20;;
28003;SDS011;15330;51.234;6.754;2022-08-23T03:40:34;8.52;;;5.70;;
28003;SDS011;15330;51.234;6.754;2022-08-23T03:43:00;12.25;;;5.90;;
28003;SDS011;15330;51.234;6.754;2022-08-23T03:45:26;8.52;;;5.45;;
28003;SDS011;15330;51.234;6.754;2022-08-23T03:47:52;11.57;;;5.63;;
28003;SDS011;15330;51.234;6.754;2022-08-23T03:50:18;11.45;;;5.60;;
28003;SDS011;15330;51.234;6.754;2022-08-23T03:52:43;9.30;;;5.18;;
28003;SDS011;15330;51.234;6.754;2022-08-23T03:55:08;11.60;;;6.22;;
28003;SDS011;15330;51.234;6.754;2022-08-23T03:57:34;9.63;;;5.97;;
28003;SDS011;15330;51.234;6.754;2022-08-23T04:00:00;9.70;;;5.65;;
28003;SDS011;15330;51.234;6.754;2022-08-23T04:02:25;7.95;;;5.90;;
28003;SDS011;15330;51.234;6.754;2022-08-23T04:04:51;8.15;;;5.95;;
28003;SDS011;15330;51.234;6.754;2022-08-23T04:07:20;9.95;;;6.18;;
28003;SDS011;15330;51.234;6.754;2022-08-23T04:09:46;12.32;;;6.68;;
28003;SDS011;15330;51.234;6.754;2022-08-23T04:12:12;8.02;;;6.07;;
28003;SDS011;15330;51.234;6.754;2022-08-23T04:14:37;11.02;;;6.75;;
28003;SDS011;15330;51.234;6.754;2022-08-23T04:17:03;8.82;;;6.47;;
28003;SDS011;15330;51.234;6.754;2022-08-23T04:19:29;12.05;;;6.53;;
28003;SDS011;15330;51.234;6.754;2022-08-23T04:21:55;12.77;;;7.18;;
28003;SDS011;15330;51.234;6.754;2022-08-23T04:24:20;9.75;;;6.88;;
28003;SDS011;15330;51.234;6.754;2022-08-23T04:26:46;10.45;;;7.82;;
28003;SDS011;15330;51.234;6.754;2022-08-23T04:29:12;11.50;;;7.30;;
28003;SDS011;15330;51.234;6.754;2022-08-23T04:31:40;15.30;;;7.15;;
28003;SDS011;15330;51.234;6.754;2022-08-23T04:34:06;12.45;;;6.80;;
28003;SDS011;15330;51.234;6.754;2022-08-23T04:36:34;13.02;;;7.47;;
28003;SDS011;15330;51.234;6.754;2022-08-23T04:39:01;12.13;;;7.40;;
28003;SDS011;15330;51.234;6.754;2022-08-23T04:41:27;12.82;;;6.80;;
28003;SDS011;15330;51.234;6.754;2022-08-23T04:44:11;13.50;;;7.95;;
28003;SDS011;15330;51.234;6.754;2022-08-23T04:46:38;16.70;;;8.65;;
28003;SDS011;15330;51.234;6.754;2022-08-23T04:49:04;17.25;;;7.82;;
28003;SDS011;15330;51.234;6.754;2022-08-23T04:51:30;11.90;;;7.07;;
28003;SDS011;15330;51.234;6.754;2022-08-23T04:53:55;12.60;;;7.65;;
28003;SDS011;15330;51.234;6.754;2022-08-23T04:56:21;12.35;;;7.40;;
28003;SDS011;15330;51.234;6.754;2022-08-23T04:58:47;10.52;;;7.80;;
28003;SDS011;15330;51.234;6.754;2022-08-23T05:01:12;15.23;;;7.75;;
28003;SDS011;15330;51.234;6.754;2022-08-23T05:03:40;13.77;;;7.72;;
28003;SDS011;15330;51.234;6.754;2022-08-23T05:06:06;14.52;;;8.05;;
28003;SDS011;15330;51.234;6.754;2022-08-23T05:08:32;16.60;;;8.70;;
28003;SDS011;15330;51.234;6.754;2022-08-23T05:11:07;13.93;;;7.97;;
28003;SDS011;15330;51.234;6.754;2022-08-23T05:13:34;11.98;;;7.90;;
28003;SDS011;15330;51.234;6.754;2022-08-23T05:16:01;13.77;;;8.27;;
28003;SDS011;15330;51.234;6.754;2022-08-23T05:18:27;14.13;;;8.98;;
28003;SDS011;15330;51.234;6.754;2022-08-23T05:20:52;20.17;;;8.77;;
28003;SDS011;15330;51.234;6.754;2022-08-23T05:23:18;14.38;;;9.10;;
28003;SDS011;15330;51.234;6.754;2022-08-23T05:25:43;14.90;;;9.20;;
28003;SDS011;15330;51.234;6.754;2022-08-23T05:28:18;15.15;;;8.50;;
28003;SDS011;15330;51.234;6.754;2022-08-23T05:30:52;14.32;;;9.65;;
28003;SDS011;15330;51.234;6.754;2022-08-23T05:33:19;15.15;;;9.77;;
28003;SDS011;15330;51.234;6.754;2022-08-23T05:35:45;12.98;;;8.80;;
28003;SDS011;15330;51.234;6.754;2022-08-23T05:38:10;17.85;;;9.95;;
28003;SDS011;15330;51.234;6.754;2022-08-23T05:43:05;19.27;;;12.02;;
28003;SDS011;15330;51.234;6.754;2022-08-23T05:45:30;15.63;;;10.13;;
28003;SDS011;15330;51.234;6.754;2022-08-23T05:47:56;18.15;;;10.30;;
28003;SDS011;15330;51.234;6.754;2022-08-23T05:50:21;16.60;;;11.00;;
28003;SDS011;15330;51.234;6.754;2022-08-23T05:52:52;18.10;;;10.13;;
28003;SDS011;15330;51.234;6.754;2022-08-23T05:55:17;17.35;;;10.18;;
28003;SDS011;15330;51.234;6.754;2022-08-23T05:57:43;20.88;;;10.05;;
28003;SDS011;15330;51.234;6.754;2022-08-23T06:00:09;18.30;;;9.75;;
28003;SDS011;15330;51.234;6.754;2022-08-23T06:02:39;16.33;;;9.55;;
28003;SDS011;15330;51.234;6.754;2022-08-23T06:05:06;14.70;;;8.95;;
28003;SDS011;15330;51.234;6.754;2022-08-23T06:07:32;19.65;;;10.10;;
28003;SDS011;15330;51.234;6.754;2022-08-23T06:09:58;20.23;;;10.27;;
28003;SDS011;15330;51.234;6.754;2022-08-23T06:12:24;20.13;;;10.70;;
28003;SDS011;15330;51.234;6.754;2022-08-23T06:14:50;16.25;;;9.95;;
28003;SDS011;15330;51.234;6.754;2022-08-23T06:17:15;24.92;;;9.93;;
28003;SDS011;15330;51.234;6.754;2022-08-23T06:19:41;23.13;;;9.90;;
28003;SDS011;15330;51.234;6.754;2022-08-23T06:22:06;19.38;;;9.57;;
28003;SDS011;15330;51.234;6.754;2022-08-23T06:24:32;16.48;;;9.48;;
28003;SDS011;15330;51.234;6.754;2022-08-23T06:26:57;18.88;;;9.05;;
28003;SDS011;15330;51.234;6.754;2022-08-23T06:29:23;19.27;;;10.13;;
28003;SDS011;15330;51.234;6.754;2022-08-23T06:31:49;14.25;;;9.75;;
28003;SDS011;15330;51.234;6.754;2022-08-23T06:36:47;17.33;;;9.75;;
28003;SDS011;15330;51.234;6.754;2022-08-23T06:39:16;22.45;;;9.77;;
28003;SDS011;15330;51.234;6.754;2022-08-23T06:41:43;17.73;;;8.75;;
28003;SDS011;15330;51.234;6.754;2022-08-23T06:44:09;17.35;;;10.52;;
28003;SDS011;15330;51.234;6.754;2022-08-23T06:46:35;19.70;;;9.75;;
28003;SDS011;15330;51.234;6.754;2022-08-23T06:49:09;17.33;;;8.93;;
28003;SDS011;15330;51.234;6.754;2022-08-23T06:51:35;18.23;;;8.10;;
28003;SDS011;15330;51.234;6.754;2022-08-23T06:54:04;16.52;;;8.90;;
28003;SDS011;15330;51.234;6.754;2022-08-23T06:56:32;16.42;;;9.30;;
28003;SDS011;15330;51.234;6.754;2022-08-23T06:58:57;20.30;;;9.32;;
28003;SDS011;15330;51.234;6.754;2022-08-23T07:03:57;14.75;;;10.02;;
28003;SDS011;15330;51.234;6.754;2022-08-23T07:06:24;16.65;;;9.70;;
28003;SDS011;15330;51.234;6.754;2022-08-23T07:08:50;17.73;;;9.73;;
28003;SDS011;15330;51.234;6.754;2022-08-23T07:11:17;19.58;;;10.20;;
28003;SDS011;15330;51.234;6.754;2022-08-23T07:13:43;24.42;;;11.05;;
28003;SDS011;15330;51.234;6.754;2022-08-23T07:16:09;18.27;;;11.10;;
28003;SDS011;15330;51.234;6.754;2022-08-23T07:18:34;20.95;;;12.18;;
28003;SDS011;15330;51.234;6.754;2022-08-23T07:21:01;22.67;;;12.32;;
28003;SDS011;15330;51.234;6.754;2022-08-23T07:23:29;20.90;;;11.43;;
28003;SDS011;15330;51.234;6.754;2022-08-23T07:25:57;23.67;;;12.07;;
28003;SDS011;15330;51.234;6.754;2022-08-23T07:28:24;22.88;;;11.73;;
28003;SDS011;15330;51.234;6.754;2022-08-23T07:30:50;22.05;;;11.25;;
28003;SDS011;15330;51.234;6.754;2022-08-23T07:33:15;25.00;;;11.65;;
28003;SDS011;15330;51.234;6.754;2022-08-23T07:35:47;19.63;;;11.73;;
28003;SDS011;15330;51.234;6.754;2022-08-23T07:38:14;22.20;;;11.43;;
28003;SDS011;15330;51.234;6.754;2022-08-23T07:40:40;23.15;;;11.55;;
28003;SDS011;15330;51.234;6.754;2022-08-23T07:43:06;24.58;;;12.07;;
28003;SDS011;15330;51.234;6.754;2022-08-23T07:45:32;23.75;;;11.52;;
28003;SDS011;15330;51.234;6.754;2022-08-23T07:47:59;21.80;;;11.77;;
28003;SDS011;15330;51.234;6.754;2022-08-23T07:50:26;21.60;;;11.40;;
28003;SDS011;15330;51.234;6.754;2022-08-23T07:52:52;23.58;;;10.88;;
28003;SDS011;15330;51.234;6.754;2022-08-23T07:55:17;22.95;;;11.43;;
28003;SDS011;15330;51.234;6.754;2022-08-23T07:57:42;19.88;;;10.88;;
28003;SDS011;15330;51.234;6.754;2022-08-23T08:00:08;19.38;;;9.55;;
28003;SDS011;15330;51.234;6.754;2022-08-23T08:02:34;15.95;;;9.60;;
28003;SDS011;15330;51.234;6.754;2022-08-23T08:04:59;17.20;;;8.93;;
28003;SDS011;15330;51.234;6.754;2022-08-23T08:07:24;15.70;;;8.52;;
28003;SDS011;15330;51.234;6.754;2022-08-23T08:09:51;17.33;;;8.63;;
28003;SDS011;15330;51.234;6.754;2022-08-23T08:12:17;15.90;;;7.43;;
28003;SDS011;15330;51.234;6.754;2022-08-23T08:14:42;21.08;;;7.68;;
28003;SDS011;15330;51.234;6.754;2022-08-23T08:17:07;17.30;;;7.25;;
28003;SDS011;15330;51.234;6.754;2022-08-23T08:19:33;14.63;;;6.38;;
28003;SDS011;15330;51.234;6.754;2022-08-23T08:21:58;20.92;;;7.70;;
28003;SDS011;15330;51.234;6.754;2022-08-23T08:24:24;18.55;;;7.60;;
28003;SDS011;15330;51.234;6.754;2022-08-23T08:26:49;16.80;;;6.88;;
28003;SDS011;15330;51.234;6.754;2022-08-23T08:29:15;13.80;;;6.80;;
28003;SDS011;15330;51.234;6.754;2022-08-23T08:31:41;14.63;;;6.82;;
28003;SDS011;15330;51.234;6.754;2022-08-23T08:34:08;17.77;;;6.20;;
28003;SDS011;15330;51.234;6.754;2022-08-23T08:38:59;18.10;;;7.20;;
28003;SDS011;15330;51.234;6.754;2022-08-23T08:46:50;13.40;;;6.18;;
28003;SDS011;15330;51.234;6.754;2022-08-23T08:49:39;12.60;;;5.68;;
28003;SDS011;15330;51.234;6.754;2022-08-23T08:52:29;13.98;;;5.93;;
28003;SDS011;15330;51.234;6.754;2022-08-23T08:56:00;15.13;;;5.45;;
28003;SDS011;15330;51.234;6.754;2022-08-23T08:57:58;16.45;;;6.75;;
28003;SDS011;15330;51.234;6.754;2022-08-23T09:02:52;14.50;;;6.40;;
28003;SDS011;15330;51.234;6.754;2022-08-23T09:05:24;11.32;;;6.50;;
28003;SDS011;15330;51.234;6.754;2022-08-23T09:16:08;13.02;;;6.40;;
28003;SDS011;15330;51.234;6.754;2022-08-23T09:18:37;10.10;;;4.72;;
28003;SDS011;15330;51.234;6.754;2022-08-23T09:21:05;11.90;;;5.50;;
28003;SDS011;15330;51.234;6.754;2022-08-23T09:23:40;14.25;;;4.85;;
28003;SDS011;15330;51.234;6.754;2022-08-23T09:26:21;15.82;;;5.55;;
28003;SDS011;15330;51.234;6.754;2022-08-23T09:28:59;15.90;;;4.68;;
28003;SDS011;15330;51.234;6.754;2022-08-23T09:31:39;13.00;;;5.05;;
28003;SDS011;15330;51.234;6.754;2022-08-23T09:34:09;14.40;;;4.88;;
28003;SDS011;15330;51.234;6.754;2022-08-23T09:36:42;12.98;;;4.15;;
28003;SDS011;15330;51.234;6.754;2022-08-23T09:39:22;15.95;;;4.32;;
28003;SDS011;15330;51.234;6.754;2022-08-23T09:41:50;9.20;;;4.10;;
28003;SDS011;15330;51.234;6.754;2022-08-23T09:44:29;10.27;;;4.40;;
28003;SDS011;15330;51.234;6.754;2022-08-23T09:47:13;13.98;;;4.13;;
28003;SDS011;15330;51.234;6.754;2022-08-23T09:49:41;11.00;;;4.45;;
28003;SDS011;15330;51.234;6.754;2022-08-23T09:52:21;6.63;;;3.85;;
28003;SDS011;15330;51.234;6.754;2022-08-23T09:54:58;11.52;;;4.10;;
28003;SDS011;15330;51.234;6.754;2022-08-23T09:57:28;8.50;;;3.90;;
28003;SDS011;15330;51.234;6.754;2022-08-23T10:00:00;10.10;;;3.70;;
28003;SDS011;15330;51.234;6.754;2022-08-23T10:02:43;13.13;;;3.83;;
28003;SDS011;15330;51.234;6.754;2022-08-23T10:07:41;11.82;;;3.78;;
28003;SDS011;15330;51.234;6.754;2022-08-23T10:10:15;12.40;;;3.88;;
28003;SDS011;15330;51.234;6.754;2022-08-23T10:12:45;10.80;;;4.15;;
28003;SDS011;15330;51.234;6.754;2022-08-23T10:15:11;9.95;;;3.83;;
28003;SDS011;15330;51.234;6.754;2022-08-23T10:22:44;10.75;;;3.90;;
28003;SDS011;15330;51.234;6.754;2022-08-23T10:25:25;10.20;;;3.60;;
28003;SDS011;15330;51.234;6.754;2022-08-23T10:31:13;13.48;;;4.47;;
28003;SDS011;15330;51.234;6.754;2022-08-23T10:39:22;13.63;;;4.20;;
28003;SDS011;15330;51.234;6.754;2022-08-23T10:44:49;8.15;;;3.45;;
28003;SDS011;15330;51.234;6.754;2022-08-23T10:50:06;12.38;;;3.97;;
28003;SDS011;15330;51.234;6.754;2022-08-23T10:52:38;6.60;;;3.45;;
28003;SDS011;15330;51.234;6.754;2022-08-23T10:55:12;14.02;;;3.95;;
28003;SDS011;15330;51.234;6.754;2022-08-23T10:57:59;12.15;;;4.05;;
28003;SDS011;15330;51.234;6.754;2022-08-23T11:00:27;10.32;;;3.63;;
28003;SDS011;15330;51.234;6.754;2022-08-23T11:05:27;12.13;;;3.72;;
28003;SDS011;15330;51.234;6.754;2022-08-23T11:12:57;9.65;;;4.07;;
28003;SDS011;15330;51.234;6.754;2022-08-23T11:15:40;10.90;;;4.03;;
28003;SDS011;15330;51.234;6.754;2022-08-23T11:18:34;8.77;;;3.53;;
28003;SDS011;15330;51.234;6.754;2022-08-23T11:21:39;9.20;;;4.25;;
28003;SDS011;15330;51.234;6.754;2022-08-23T11:31:33;9.63;;;3.63;;
28003;SDS011;15330;51.234;6.754;2022-08-23T11:36:30;11.43;;;4.50;;
28003;SDS011;15330;51.234;6.754;2022-08-23T11:41:23;17.57;;;4.23;;
28003;SDS011;15330;51.234;6.754;2022-08-23T12:02:57;16.20;;;4.45;;
28003;SDS011;15330;51.234;6.754;2022-08-23T12:18:30;15.07;;;3.63;;
28003;SDS011;15330;51.234;6.754;2022-08-23T12:20:59;7.97;;;3.13;;
28003;SDS011;15330;51.234;6.754;2022-08-23T12:23:28;9.15;;;3.08;;
28003;SDS011;15330;51.234;6.754;2022-08-23T12:26:02;7.32;;;3.03;;
28003;SDS011;15330;51.234;6.754;2022-08-23T12:28:44;9.98;;;3.40;;
28003;SDS011;15330;51.234;6.754;2022-08-23T12:35:19;10.60;;;2.80;;
28003;SDS011;15330;51.234;6.754;2022-08-23T12:39:54;9.52;;;2.95;;
28003;SDS011;15330;51.234;6.754;2022-08-23T12:42:29;9.07;;;2.97;;
28003;SDS011;15330;51.234;6.754;2022-08-23T12:45:17;9.70;;;3.60;;
28003;SDS011;15330;51.234;6.754;2022-08-23T12:47:56;10.75;;;3.15;;
28003;SDS011;15330;51.234;6.754;2022-08-23T12:50:25;9.88;;;3.03;;
28003;SDS011;15330;51.234;6.754;2022-08-23T12:52:56;9.07;;;3.13;;
28003;SDS011;15330;51.234;6.754;2022-08-23T12:55:23;11.55;;;3.08;;
28003;SDS011;15330;51.234;6.754;2022-08-23T12:57:56;12.45;;;4.05;;
28003;SDS011;15330;51.234;6.754;2022-08-23T13:00:25;8.23;;;2.90;;
28003;SDS011;15330;51.234;6.754;2022-08-23T13:02:59;9.05;;;3.30;;
28003;SDS011;15330;51.234;6.754;2022-08-23T13:05:32;9.65;;;3.17;;
28003;SDS011;15330;51.234;6.754;2022-08-23T13:07:59;8.35;;;2.88;;
28003;SDS011;15330;51.234;6.754;2022-08-23T13:10:27;11.73;;;2.72;;
28003;SDS011;15330;51.234;6.754;2022-08-23T13:12:53;10.38;;;2.95;;
28003;SDS011;15330;51.234;6.754;2022-08-23T13:18:05;13.38;;;4.35;;
28003;SDS011;15330;51.234;6.754;2022-08-23T13:20:30;11.90;;;3.47;;
28003;SDS011;15330;51.234;6.754;2022-08-23T13:23:00;6.90;;;3.35;;
28003;SDS011;15330;51.234;6.754;2022-08-23T13:25:38;7.35;;;3.35;;
28003;SDS011;15330;51.234;6.754;2022-08-23T13:28:07;6.05;;;3.22;;
28003;SDS011;15330;51.234;6.754;2022-08-23T13:30:56;7.05;;;3.03;;
28003;SDS011;15330;51.234;6.754;2022-08-23T13:33:24;14.98;;;3.40;;
28003;SDS011;15330;51.234;6.754;2022-08-23T13:35:50;9.00;;;3.00;;
28003;SDS011;15330;51.234;6.754;2022-08-23T13:38:29;8.50;;;2.83;;
28003;SDS011;15330;51.234;6.754;2022-08-23T13:41:00;7.82;;;3.08;;
28003;SDS011;15330;51.234;6.754;2022-08-23T13:46:16;6.95;;;3.05;;
28003;SDS011;15330;51.234;6.754;2022-08-23T13:49:08;5.90;;;3.03;;
28003;SDS011;15330;51.234;6.754;2022-08-23T13:51:38;7.05;;;2.63;;
28003;SDS011;15330;51.234;6.754;2022-08-23T13:54:07;7.32;;;2.88;;
28003;SDS011;15330;51.234;6.754;2022-08-23T13:56:48;6.32;;;2.72;;
28003;SDS011;15330;51.234;6.754;2022-08-23T13:59:30;4.63;;;2.70;;
28003;SDS011;15330;51.234;6.754;2022-08-23T14:02:06;7.07;;;2.78;;
28003;SDS011;15330;51.234;6.754;2022-08-23T14:04:35;10.88;;;2.55;;
28003;SDS011;15330;51.234;6.754;2022-08-23T14:07:01;11.85;;;3.15;;
28003;SDS011;15330;51.234;6.754;2022-08-23T14:09:27;10.35;;;3.03;;
28003;SDS011;15330;51.234;6.754;2022-08-23T14:11:53;8.85;;;3.50;;
28003;SDS011;15330;51.234;6.754;2022-08-23T14:14:22;8.60;;;3.67;;
28003;SDS011;15330;51.234;6.754;2022-08-23T14:16:49;8.13;;;2.63;;
28003;SDS011;15330;51.234;6.754;2022-08-23T14:19:14;11.85;;;2.72;;
28003;SDS011;15330;51.234;6.754;2022-08-23T14:21:40;4.60;;;2.60;;
28003;SDS011;15330;51.234;6.754;2022-08-23T14:24:05;7.53;;;2.67;;
28003;SDS011;15330;51.234;6.754;2022-08-23T14:26:31;6.53;;;2.38;;
28003;SDS011;15330;51.234;6.754;2022-08-23T14:28:56;11.38;;;2.88;;
28003;SDS011;15330;51.234;6.754;2022-08-23T14:31:22;9.73;;;5.15;;
28003;SDS011;15330;51.234;6.754;2022-08-23T14:33:47;10.57;;;4.32;;
28003;SDS011;15330;51.234;6.754;2022-08-23T14:36:13;7.82;;;3.45;;
28003;SDS011;15330;51.234;6.754;2022-08-23T14:38:40;6.70;;;2.30;;
28003;SDS011;15330;51.234;6.754;2022-08-23T14:41:06;4.72;;;2.17;;
28003;SDS011;15330;51.234;6.754;2022-08-23T14:43:33;9.10;;;2.72;;
28003;SDS011;15330;51.234;6.754;2022-08-23T14:46:00;5.20;;;2.28;;
28003;SDS011;15330;51.234;6.754;2022-08-23T14:48:26;6.80;;;2.35;;
28003;SDS011;15330;51.234;6.754;2022-08-23T14:50:52;7.10;;;2.20;;
28003;SDS011;15330;51.234;6.754;2022-08-23T14:53:19;6.28;;;2.15;;
28003;SDS011;15330;51.234;6.754;2022-08-23T14:55:49;5.72;;;2.30;;
28003;SDS011;15330;51.234;6.754;2022-08-23T14:58:17;5.30;;;2.45;;
28003;SDS011;15330;51.234;6.754;2022-08-23T15:00:46;4.97;;;2.05;;
28003;SDS011;15330;51.234;6.754;2022-08-23T15:03:14;6.78;;;2.55;;
28003;SDS011;15330;51.234;6.754;2022-08-23T15:05:43;7.95;;;2.60;;
28003;SDS011;15330;51.234;6.754;2022-08-23T15:08:08;5.22;;;2.35;;
28003;SDS011;15330;51.234;6.754;2022-08-23T15:10:34;9.68;;;2.88;;
28003;SDS011;15330;51.234;6.754;2022-08-23T15:12:59;6.47;;;2.22;;
28003;SDS011;15330;51.234;6.754;2022-08-23T15:15:25;4.93;;;2.10;;
28003;SDS011;15330;51.234;6.754;2022-08-23T15:17:52;4.50;;;2.10;;
28003;SDS011;15330;51.234;6.754;2022-08-23T15:20:19;8.00;;;2.17;;
28003;SDS011;15330;51.234;6.754;2022-08-23T15:22:52;10.32;;;2.35;;
28003;SDS011;15330;51.234;6.754;2022-08-23T15:25:17;9.60;;;2.28;;
28003;SDS011;15330;51.234;6.754;2022-08-23T15:27:43;8.40;;;2.30;;
28003;SDS011;15330;51.234;6.754;2022-08-23T15:30:10;3.45;;;1.90;;
28003;SDS011;15330;51.234;6.754;2022-08-23T15:32:37;3.58;;;2.00;;
28003;SDS011;15330;51.234;6.754;2022-08-23T15:35:03;7.28;;;2.47;;
28003;SDS011;15330;51.234;6.754;2022-08-23T15:37:29;11.40;;;2.88;;
28003;SDS011;15330;51.234;6.754;2022-08-23T15:39:55;7.10;;;2.38;;
28003;SDS011;15330;51.234;6.754;2022-08-23T15:42:21;4.22;;;2.00;;
28003;SDS011;15330;51.234;6.754;2022-08-23T15:44:46;3.70;;;1.98;;
28003;SDS011;15330;51.234;6.754;2022-08-23T15:47:17;3.53;;;1.92;;
28003;SDS011;15330;51.234;6.754;2022-08-23T15:49:45;5.05;;;2.08;;
28003;SDS011;15330;51.234;6.754;2022-08-23T15:52:11;3.67;;;2.45;;
28003;SDS011;15330;51.234;6.754;2022-08-23T15:54:36;9.15;;;3.78;;
28003;SDS011;15330;51.234;6.754;2022-08-23T15:57:02;6.68;;;2.40;;
28003;SDS011;15330;51.234;6.754;2022-08-23T15:59:28;9.38;;;2.47;;
28003;SDS011;15330;51.234;6.754;2022-08-23T16:01:58;6.68;;;2.88;;
28003;SDS011;15330;51.234;6.754;2022-08-23T16:04:23;9.55;;;2.10;;
28003;SDS011;15330;51.234;6.754;2022-08-23T16:06:49;4.20;;;2.00;;
28003;SDS011;15330;51.234;6.754;2022-08-23T16:09:23;5.10;;;2.08;;
28003;SDS011;15330;51.234;6.754;2022-08-23T16:11:54;11.68;;;2.55;;
28003;SDS011;15330;51.234;6.754;2022-08-23T16:14:20;5.43;;;1.90;;
28003;SDS011;15330;51.234;6.754;2022-08-23T16:16:45;5.45;;;2.05;;
28003;SDS011;15330;51.234;6.754;2022-08-23T16:19:11;7.03;;;1.90;;
28003;SDS011;15330;51.234;6.754;2022-08-23T16:21:37;4.65;;;2.20;;
28003;SDS011;15330;51.234;6.754;2022-08-23T16:24:03;6.65;;;1.85;;
28003;SDS011;15330;51.234;6.754;2022-08-23T16:26:31;4.72;;;1.88;;
28003;SDS011;15330;51.234;6.754;2022-08-23T16:28:58;7.65;;;2.13;;
28003;SDS011;15330;51.234;6.754;2022-08-23T16:31:24;4.32;;;2.10;;
28003;SDS011;15330;51.234;6.754;2022-08-23T16:33:54;5.00;;;2.40;;
28003;SDS011;15330;51.234;6.754;2022-08-23T16:36:20;4.78;;;1.70;;
28003;SDS011;15330;51.234;6.754;2022-08-23T16:38:46;5.20;;;2.00;;
28003;SDS011;15330;51.234;6.754;2022-08-23T16:41:12;5.45;;;2.15;;
28003;SDS011;15330;51.234;6.754;2022-08-23T16:43:38;9.00;;;2.28;;
28003;SDS011;15330;51.234;6.754;2022-08-23T16:46:04;5.53;;;1.90;;
28003;SDS011;15330;51.234;6.754;2022-08-23T16:48:30;4.88;;;1.95;;
28003;SDS011;15330;51.234;6.754;2022-08-23T16:50:56;6.38;;;2.15;;